Time;durP1;ratioP1;P1;durP2;ratioP2;P2;SDS_P1;SDS_P2;PMS_P1;PMS_P2;Temp;Humidity;BMP_temperature;BMP_pressure;BME280_temperature;BME280_humidity;BME280_pressure;Samples;Min_cycle;Max_cycle;Signal;HPM_P1;HPM_P2
2022/10/31 00:01:30;;;;;;;32.78;18.20;;;11.90;99.90;;;;;;6249230;23;20004;-78
2022/10/31 00:03:56;;;;;;;27.35;16.08;;;12.00;99.90;;;;;;6247689;23;20086;-79
2022/10/31 00:06:22;;;;;;;27.70;15.40;;;12.00;99.90;;;;;;6250008;22;20000;-79
2022/10/31 00:08:57;;;;;;;28.77;16.00;;;11.90;99.90;;;;;;6224822;23;20381;-79
2022/10/31 00:11:23;;;;;;;29.38;15.98;;;12.00;99.90;;;;;;6250452;22;20023;-78
2022/10/31 00:13:49;;;;;;;25.73;15.45;;;12.00;99.90;;;;;;6248267;23;20003;-77
2022/10/31 00:16:16;;;;;;;23.95;14.27;;;12.00;99.90;;;;;;6248719;23;20001;-79
2022/10/31 00:18:42;;;;;;;26.42;14.45;;;12.00;99.90;;;;;;6250877;23;20004;-78
2022/10/31 00:21:08;;;;;;;24.67;14.35;;;12.00;99.90;;;;;;6253509;22;20055;-79
2022/10/31 00:23:34;;;;;;;23.75;15.02;;;12.00;99.90;;;;;;6251770;23;19996;-78
2022/10/31 00:26:04;;;;;;;27.33;14.32;;;12.10;99.90;;;;;;6250239;23;20402;-79
2022/10/31 00:28:32;;;;;;;30.20;16.27;;;12.10;99.90;;;;;;6228439;23;20090;-77
2022/10/31 00:31:03;;;;;;;32.28;15.00;;;12.10;99.90;;;;;;6251731;23;20327;-77
2022/10/31 00:33:29;;;;;;;29.30;16.45;;;12.00;99.90;;;;;;6250653;23;20011;-78
2022/10/31 00:35:56;;;;;;;24.58;14.07;;;12.10;99.90;;;;;;6249616;22;20035;-77
2022/10/31 00:38:22;;;;;;;24.45;13.93;;;12.10;99.90;;;;;;6253817;22;20027;-78
2022/10/31 00:40:48;;;;;;;26.73;15.30;;;12.10;99.90;;;;;;6246206;23;20346;-79
2022/10/31 00:43:13;;;;;;;25.58;14.27;;;12.10;99.90;;;;;;6251110;22;20084;-79
2022/10/31 00:45:40;;;;;;;24.67;14.65;;;12.10;99.90;;;;;;6250449;22;20007;-78
2022/10/31 00:48:06;;;;;;;24.98;15.18;;;12.10;99.90;;;;;;6246826;23;20374;-79
2022/10/31 00:50:32;;;;;;;25.30;14.23;;;12.00;99.90;;;;;;6248973;23;20019;-78
2022/10/31 00:52:59;;;;;;;24.58;14.48;;;12.10;99.90;;;;;;6248776;23;20019;-77
2022/10/31 00:55:25;;;;;;;28.58;15.25;;;12.10;99.90;;;;;;6247203;22;20427;-78
2022/10/31 00:57:51;;;;;;;25.85;15.32;;;12.10;99.90;;;;;;6250890;23;20043;-76
2022/10/31 01:00:17;;;;;;;26.77;15.93;;;12.10;99.90;;;;;;6227806;23;20362;-77
2022/10/31 01:02:43;;;;;;;30.85;15.70;;;12.00;99.90;;;;;;6250285;23;20506;-78
2022/10/31 01:05:09;;;;;;;25.70;14.80;;;12.00;99.90;;;;;;6249641;23;20083;-77
2022/10/31 01:07:39;;;;;;;25.85;14.35;;;12.00;99.90;;;;;;6249281;23;20087;-78
2022/10/31 01:10:09;;;;;;;26.23;14.30;;;12.00;99.90;;;;;;6221916;23;20031;-79
2022/10/31 01:12:43;;;;;;;27.50;14.95;;;12.00;99.90;;;;;;6223681;23;20008;-77
2022/10/31 01:15:11;;;;;;;24.85;14.02;;;12.00;99.90;;;;;;6254139;23;20011;-78
2022/10/31 01:17:37;;;;;;;27.58;15.38;;;12.00;99.90;;;;;;6255089;22;20000;-78
2022/10/31 01:20:05;;;;;;;25.95;14.52;;;11.90;99.90;;;;;;6256098;22;20019;-77
2022/10/31 01:22:31;;;;;;;26.40;15.23;;;11.90;99.90;;;;;;6252740;22;20000;-77
2022/10/31 01:25:00;;;;;;;26.23;14.48;;;11.90;99.90;;;;;;6254354;23;20008;-77
2022/10/31 01:27:26;;;;;;;28.13;14.82;;;12.00;99.90;;;;;;6250638;22;20000;-80
2022/10/31 01:29:52;;;;;;;25.10;12.77;;;12.00;99.90;;;;;;6247267;22;20004;-79
2022/10/31 01:32:17;;;;;;;25.30;14.18;;;12.00;99.90;;;;;;6245866;23;20042;-78
2022/10/31 01:34:44;;;;;;;20.95;12.85;;;12.00;99.90;;;;;;6253012;23;20075;-76
2022/10/31 01:37:12;;;;;;;21.60;12.38;;;12.00;99.90;;;;;;6266163;23;20000;-78
2022/10/31 01:39:38;;;;;;;22.48;13.50;;;12.20;99.90;;;;;;6260766;22;20000;-78
2022/10/31 01:42:04;;;;;;;19.85;12.35;;;12.20;99.90;;;;;;6251524;23;20008;-78
2022/10/31 01:44:30;;;;;;;26.33;13.85;;;12.20;99.90;;;;;;6249472;23;20019;-80
2022/10/31 01:47:07;;;;;;;23.15;13.77;;;12.20;99.90;;;;;;6247066;23;20034;-78
2022/10/31 01:49:41;;;;;;;20.90;12.38;;;12.30;99.90;;;;;;6249905;22;20031;-77
2022/10/31 01:52:30;;;;;;;22.10;12.95;;;12.30;99.90;;;;;;6250538;22;20087;-77
2022/10/31 01:55:04;;;;;;;21.58;12.35;;;12.30;99.90;;;;;;6246865;23;20007;-77
2022/10/31 01:57:33;;;;;;;24.33;12.82;;;12.20;99.90;;;;;;6246459;23;20008;-78
2022/10/31 02:00:03;;;;;;;19.77;11.73;;;12.10;99.90;;;;;;6249501;22;20074;-78
2022/10/31 02:02:39;;;;;;;24.70;12.27;;;12.10;99.90;;;;;;6250257;23;20021;-78
2022/10/31 02:05:09;;;;;;;20.52;12.57;;;12.00;99.90;;;;;;6249569;22;20001;-79
2022/10/31 02:07:45;;;;;;;21.25;12.48;;;12.10;99.90;;;;;;6249180;22;20008;-78
2022/10/31 02:10:11;;;;;;;25.08;12.95;;;12.10;99.90;;;;;;6247108;22;20004;-78
2022/10/31 02:12:39;;;;;;;23.08;13.70;;;12.10;99.90;;;;;;6246322;23;20004;-77
2022/10/31 02:15:05;;;;;;;25.83;13.45;;;12.20;99.90;;;;;;6248109;23;20012;-78
2022/10/31 02:17:32;;;;;;;25.95;12.38;;;12.20;99.90;;;;;;6251724;22;20011;-78
2022/10/31 02:20:19;;;;;;;21.75;13.32;;;12.20;99.90;;;;;;6253377;23;20068;-76
2022/10/31 02:22:51;;;;;;;23.70;12.65;;;12.20;99.90;;;;;;6254694;23;20435;-77
2022/10/31 02:25:52;;;;;;;21.10;12.90;;;12.20;99.90;;;;;;6250224;23;20442;-77
2022/10/31 02:28:39;;;;;;;22.48;13.35;;;12.30;99.90;;;;;;6240726;23;20019;-79
2022/10/31 02:31:27;;;;;;;23.45;13.88;;;12.30;99.90;;;;;;6249826;22;20015;-79
2022/10/31 02:33:58;;;;;;;21.52;12.93;;;12.30;99.90;;;;;;6222552;23;20012;-77
2022/10/31 02:36:58;;;;;;;25.13;14.30;;;12.30;99.90;;;;;;6250266;22;20007;-78
2022/10/31 02:39:46;;;;;;;26.50;14.82;;;12.30;99.90;;;;;;6242980;22;20016;-77
2022/10/31 02:42:20;;;;;;;26.60;14.05;;;12.30;99.90;;;;;;6266638;23;20008;-77
2022/10/31 02:44:57;;;;;;;24.55;13.90;;;12.30;99.90;;;;;;6239842;23;20011;-77
2022/10/31 02:47:28;;;;;;;29.02;13.82;;;12.30;99.90;;;;;;6280418;22;20023;-76
2022/10/31 02:50:12;;;;;;;24.27;12.95;;;12.30;99.90;;;;;;6242827;22;20008;-78
2022/10/31 02:52:39;;;;;;;25.10;12.90;;;12.30;99.90;;;;;;6263080;22;20004;-78
2022/10/31 02:55:27;;;;;;;24.23;12.68;;;12.30;99.90;;;;;;6300490;22;20000;-77
2022/10/31 02:58:20;;;;;;;20.38;12.40;;;12.30;99.90;;;;;;6266174;22;20019;-77
2022/10/31 03:01:14;;;;;;;18.23;11.57;;;12.30;99.90;;;;;;6259148;22;20003;-77
2022/10/31 03:04:04;;;;;;;21.02;13.43;;;12.30;99.90;;;;;;6256133;22;20008;-77
2022/10/31 03:06:41;;;;;;;22.13;11.85;;;12.30;99.90;;;;;;6262258;22;20011;-77
2022/10/31 03:09:39;;;;;;;18.55;11.23;;;12.30;99.90;;;;;;6283970;22;20011;-77
2022/10/31 03:12:38;;;;;;;22.30;11.73;;;12.30;99.90;;;;;;6257000;22;20096;-77
2022/10/31 03:15:25;;;;;;;22.63;12.40;;;12.40;99.90;;;;;;6254887;22;20015;-77
2022/10/31 03:18:29;;;;;;;20.60;11.98;;;12.30;99.90;;;;;;6282491;22;20039;-76
2022/10/31 03:21:07;;;;;;;21.85;12.10;;;12.40;99.90;;;;;;6251828;22;20011;-77
2022/10/31 03:23:37;;;;;;;22.75;12.02;;;12.40;99.90;;;;;;6254106;22;20008;-78
2022/10/31 03:26:06;;;;;;;19.00;12.00;;;12.40;99.90;;;;;;6283296;22;20430;-77
2022/10/31 03:28:41;;;;;;;17.70;10.85;;;12.30;99.90;;;;;;6257285;22;20003;-78
2022/10/31 03:31:09;;;;;;;18.40;11.23;;;12.30;99.90;;;;;;6257665;22;20143;-78
2022/10/31 03:33:41;;;;;;;20.85;11.68;;;12.30;99.90;;;;;;6281772;22;20045;-78
2022/10/31 03:36:10;;;;;;;23.83;12.35;;;12.30;99.90;;;;;;6277912;22;20057;-77
2022/10/31 03:38:38;;;;;;;19.10;11.30;;;12.30;99.90;;;;;;6251134;22;20083;-77
2022/10/31 03:41:10;;;;;;;19.50;11.63;;;12.30;99.90;;;;;;6254571;22;20087;-78
2022/10/31 03:43:42;;;;;;;17.10;9.68;;;12.40;99.90;;;;;;6233586;22;20083;-78
2022/10/31 03:46:08;;;;;;;18.83;8.65;;;12.40;99.90;;;;;;6255379;22;20012;-77
2022/10/31 03:48:34;;;;;;;14.00;8.43;;;12.40;99.90;;;;;;6251984;22;20063;-78
2022/10/31 03:51:27;;;;;;;15.77;9.13;;;12.40;99.90;;;;;;6253028;22;20583;-77
2022/10/31 03:53:59;;;;;;;17.08;9.27;;;12.40;99.90;;;;;;6177509;22;20106;-78
2022/10/31 03:56:30;;;;;;;15.82;8.25;;;12.40;99.90;;;;;;6257405;22;20008;-78
2022/10/31 03:59:13;;;;;;;15.02;7.10;;;12.40;99.90;;;;;;6285505;22;20023;-78
2022/10/31 04:01:47;;;;;;;14.43;8.07;;;12.40;99.90;;;;;;6256890;22;20004;-78
2022/10/31 04:04:14;;;;;;;14.70;8.30;;;12.40;99.90;;;;;;6282627;22;20008;-77
2022/10/31 04:06:44;;;;;;;13.75;8.13;;;12.40;99.90;;;;;;6256368;22;20007;-78
2022/10/31 04:09:10;;;;;;;13.40;7.88;;;12.50;99.90;;;;;;6251835;22;20016;-77
2022/10/31 04:11:42;;;;;;;13.60;8.30;;;12.50;99.90;;;;;;6251845;22;20010;-77
2022/10/31 04:14:31;;;;;;;11.13;7.45;;;12.50;99.90;;;;;;6231453;22;20441;-78
2022/10/31 04:16:57;;;;;;;13.50;8.23;;;12.50;99.90;;;;;;6251533;22;20011;-78
2022/10/31 04:19:33;;;;;;;13.20;8.05;;;12.50;99.90;;;;;;6238909;22;19996;-77
2022/10/31 04:21:58;;;;;;;12.38;7.88;;;12.50;99.90;;;;;;6268294;22;20003;-78
2022/10/31 04:24:24;;;;;;;16.15;9.27;;;12.50;99.90;;;;;;6290129;22;20000;-78
2022/10/31 04:26:50;;;;;;;16.75;8.80;;;12.50;99.90;;;;;;6263016;22;20015;-77
2022/10/31 04:29:18;;;;;;;13.20;8.57;;;12.50;99.90;;;;;;6260585;22;20014;-76
2022/10/31 04:31:44;;;;;;;16.70;10.20;;;12.50;99.90;;;;;;6290912;22;20003;-78
2022/10/31 04:34:10;;;;;;;13.63;8.30;;;12.50;99.90;;;;;;6260785;22;20334;-77
2022/10/31 04:36:36;;;;;;;14.13;8.98;;;12.50;99.90;;;;;;6259396;22;20107;-78
2022/10/31 04:39:02;;;;;;;15.20;8.80;;;12.50;99.90;;;;;;6257957;22;20429;-78
2022/10/31 04:41:38;;;;;;;15.70;8.77;;;12.40;99.90;;;;;;6256938;22;20066;-79
2022/10/31 04:44:12;;;;;;;11.90;7.80;;;12.40;99.90;;;;;;6288943;22;20037;-79
2022/10/31 04:46:38;;;;;;;12.30;7.78;;;12.40;99.90;;;;;;6260450;22;20012;-77
2022/10/31 04:49:04;;;;;;;12.30;6.80;;;12.40;99.90;;;;;;6261586;22;20037;-78
2022/10/31 04:51:30;;;;;;;10.93;6.95;;;12.40;99.90;;;;;;6285345;22;20014;-77
2022/10/31 04:53:56;;;;;;;9.23;6.18;;;12.40;99.90;;;;;;6256663;22;20023;-76
2022/10/31 04:56:47;;;;;;;9.63;5.90;;;12.30;99.90;;;;;;6281902;22;20023;-78
2022/10/31 04:59:19;;;;;;;14.88;7.65;;;12.40;99.90;;;;;;6257221;22;20327;-78
2022/10/31 05:01:50;;;;;;;10.88;7.35;;;12.40;99.90;;;;;;6254321;22;20166;-77
2022/10/31 05:04:20;;;;;;;12.18;7.65;;;12.30;99.90;;;;;;6254110;22;20027;-77
2022/10/31 05:06:46;;;;;;;12.52;7.55;;;12.30;99.90;;;;;;6254415;22;20056;-78
2022/10/31 05:09:13;;;;;;;10.38;6.50;;;12.30;99.90;;;;;;6254765;22;20008;-78
2022/10/31 05:11:39;;;;;;;10.95;6.85;;;12.30;99.90;;;;;;6278934;22;20014;-77
2022/10/31 05:14:21;;;;;;;11.00;6.90;;;12.40;99.90;;;;;;6253980;22;20012;-78
2022/10/31 05:17:11;;;;;;;13.05;7.13;;;12.40;99.90;;;;;;6281557;22;20004;-78
2022/10/31 05:19:55;;;;;;;10.00;6.82;;;12.40;99.90;;;;;;6282819;22;20353;-78
2022/10/31 05:22:53;;;;;;;13.63;7.20;;;12.30;99.90;;;;;;6223789;22;20039;-78
2022/10/31 05:25:20;;;;;;;12.05;7.82;;;12.30;99.90;;;;;;6254135;22;20008;-78
2022/10/31 05:27:49;;;;;;;11.68;7.65;;;12.30;99.90;;;;;;6232660;22;20023;-80
2022/10/31 05:30:19;;;;;;;14.52;8.13;;;12.30;99.90;;;;;;6254222;22;20632;-80
2022/10/31 05:32:48;;;;;;;16.35;8.15;;;12.30;99.90;;;;;;6255254;22;20008;-77
2022/10/31 05:35:32;;;;;;;16.75;8.85;;;12.30;99.90;;;;;;6281446;22;20065;-77
2022/10/31 05:38:17;;;;;;;16.75;8.73;;;12.20;99.90;;;;;;6281594;22;20085;-78
2022/10/31 05:40:43;;;;;;;15.60;8.65;;;12.20;99.90;;;;;;6261711;22;20004;-77
2022/10/31 05:43:09;;;;;;;15.07;7.72;;;12.20;99.90;;;;;;6249429;22;20002;-77
2022/10/31 05:45:35;;;;;;;15.98;7.82;;;12.10;99.90;;;;;;6273586;22;20008;-77
2022/10/31 05:58:17;;;;;;;14.75;8.27;;;12.00;99.90;;;;;;6197222;23;20004;-84
2022/10/31 06:01:05;;;;;;;15.50;7.35;;;12.00;99.90;;;;;;6189641;23;20024;-85
2022/10/31 06:03:38;;;;;;;16.63;6.53;;;12.00;99.90;;;;;;6246340;23;20239;-83
2022/10/31 06:06:16;;;;;;;12.63;6.65;;;12.00;99.90;;;;;;6247038;22;19996;-83
2022/10/31 06:08:42;;;;;;;14.85;6.78;;;12.10;99.90;;;;;;6272822;22;20011;-84
2022/10/31 06:11:17;;;;;;;15.55;7.30;;;12.10;99.90;;;;;;6272302;22;19988;-84
2022/10/31 06:14:02;;;;;;;11.30;6.43;;;12.00;99.90;;;;;;6282942;22;20031;-82
2022/10/31 06:16:45;;;;;;;11.60;5.88;;;12.10;99.90;;;;;;6271319;22;20273;-83
2022/10/31 06:19:29;;;;;;;13.82;6.72;;;12.00;99.90;;;;;;6272856;22;20087;-82
2022/10/31 06:21:55;;;;;;;12.93;5.88;;;12.00;99.90;;;;;;6272582;22;20020;-81
2022/10/31 06:24:21;;;;;;;8.73;5.45;;;12.00;99.90;;;;;;6248005;23;20000;-83
2022/10/31 06:27:00;;;;;;;11.52;6.13;;;12.00;99.90;;;;;;6273209;22;19992;-83
2022/10/31 06:29:26;;;;;;;18.38;6.47;;;12.00;99.90;;;;;;6247373;22;20038;-85
2022/10/31 06:32:01;;;;;;;12.00;6.22;;;12.00;99.90;;;;;;6273176;22;20012;-84
2022/10/31 06:34:29;;;;;;;12.85;6.00;;;12.00;99.90;;;;;;6272975;22;20090;-85
2022/10/31 06:36:55;;;;;;;13.50;6.93;;;12.00;99.90;;;;;;6272612;22;19993;-85
2022/10/31 06:39:24;;;;;;;11.82;7.03;;;12.00;99.90;;;;;;6271233;22;20012;-84
2022/10/31 06:41:50;;;;;;;17.42;6.45;;;12.00;99.90;;;;;;6271829;22;20022;-83
2022/10/31 06:44:19;;;;;;;14.65;6.78;;;12.00;99.90;;;;;;6242770;23;20095;-87
2022/10/31 06:46:54;;;;;;;12.05;6.57;;;12.00;99.90;;;;;;6272979;22;20008;-85
2022/10/31 06:49:53;;;;;;;13.88;6.57;;;12.00;99.90;;;;;;6261264;23;20039;-86
2022/10/31 06:52:24;;;;;;;12.57;6.60;;;12.10;99.90;;;;;;6261744;23;20015;-88
2022/10/31 06:54:51;;;;;;;13.70;7.53;;;12.10;99.90;;;;;;6261705;23;20012;-84
2022/10/31 06:57:18;;;;;;;14.50;7.10;;;12.20;99.90;;;;;;6233743;23;20007;-85
2022/10/31 06:59:44;;;;;;;11.85;6.50;;;12.20;99.90;;;;;;6234097;23;20054;-87
2022/10/31 07:02:10;;;;;;;11.38;6.38;;;12.20;99.90;;;;;;6262494;22;20027;-85
2022/10/31 07:04:38;;;;;;;15.07;7.15;;;12.20;99.90;;;;;;6260011;23;20015;-84
2022/10/31 07:07:04;;;;;;;13.65;7.68;;;12.20;99.90;;;;;;6262831;22;20007;-86
2022/10/31 07:09:30;;;;;;;12.30;7.07;;;12.30;99.90;;;;;;6261410;23;20008;-84
2022/10/31 07:12:00;;;;;;;12.02;6.60;;;12.30;99.90;;;;;;6269388;23;20008;-85
2022/10/31 07:14:28;;;;;;;13.43;7.07;;;12.30;99.90;;;;;;6266169;23;20095;-84
2022/10/31 07:16:54;;;;;;;12.15;6.78;;;12.40;99.90;;;;;;6261645;23;19997;-84
2022/10/31 07:19:25;;;;;;;14.27;7.43;;;12.40;99.90;;;;;;6265867;23;20000;-84
2022/10/31 07:21:52;;;;;;;18.40;8.00;;;12.50;99.90;;;;;;6266664;23;20019;-89
2022/10/31 07:24:18;;;;;;;15.80;7.95;;;12.60;99.90;;;;;;6263334;23;20008;-85
2022/10/31 07:27:03;;;;;;;14.82;7.78;;;12.60;99.90;;;;;;6261200;23;20061;-86
2022/10/31 07:29:30;;;;;;;13.63;7.70;;;12.60;99.90;;;;;;6261249;23;20008;-85
2022/10/31 07:31:56;;;;;;;20.70;11.32;;;12.50;99.90;;;;;;6260653;23;20004;-88
2022/10/31 07:34:26;;;;;;;17.48;8.93;;;12.50;99.90;;;;;;6261601;23;20019;-88
2022/10/31 07:37:30;;;;;;;20.98;9.05;;;12.40;99.90;;;;;;6245861;22;20304;-86
2022/10/31 07:40:02;;;;;;;16.50;8.48;;;12.50;99.90;;;;;;6259612;23;20028;-88
2022/10/31 07:42:29;;;;;;;20.73;10.20;;;12.40;99.90;;;;;;6260196;23;20004;-87
2022/10/31 07:44:58;;;;;;;24.20;10.32;;;12.40;99.90;;;;;;6260846;23;20015;-86
2022/10/31 07:47:51;;;;;;;19.92;9.00;;;12.40;99.90;;;;;;6263001;23;20009;-87
2022/10/31 07:50:50;;;;;;;20.08;9.20;;;12.50;99.90;;;;;;6235082;23;20012;-88
2022/10/31 07:54:11;;;;;;;21.52;10.52;;;12.50;99.90;;;;;;6262027;23;20012;-86
2022/10/31 07:56:37;;;;;;;23.42;10.73;;;12.50;99.90;;;;;;6144229;23;20029;-86
2022/10/31 08:03:10;;;;;;;21.58;9.38;;;12.70;99.90;;;;;;6096794;23;20006;-85
2022/10/31 08:06:04;;;;;;;22.00;10.57;;;12.70;99.90;;;;;;6089502;23;20009;-87
2022/10/31 08:09:02;;;;;;;21.23;9.80;;;12.80;99.90;;;;;;6254834;23;20015;-88
2022/10/31 08:11:47;;;;;;;17.65;9.48;;;12.90;99.90;;;;;;6261285;23;20007;-88
2022/10/31 08:14:34;;;;;;;18.42;9.45;;;12.90;99.90;;;;;;6269157;22;20008;-85
2022/10/31 08:17:03;;;;;;;19.70;10.10;;;13.00;99.90;;;;;;6248835;23;20056;-86
2022/10/31 08:20:05;;;;;;;22.92;10.32;;;13.00;99.90;;;;;;6247222;23;20016;-86
2022/10/31 08:22:41;;;;;;;22.40;10.93;;;13.00;99.90;;;;;;6246168;23;20059;-86
2022/10/31 08:28:49;;;;;;;22.02;10.80;;;13.00;99.90;;;;;;6231462;22;20090;-85
2022/10/31 08:31:35;;;;;;;27.70;12.88;;;13.00;99.90;;;;;;6247386;22;20389;-84
2022/10/31 08:34:24;;;;;;;27.48;13.40;;;13.00;99.90;;;;;;6271490;22;20077;-87
2022/10/31 08:37:49;;;;;;;;;;;;;;;;;;;;;
2022/10/31 08:40:37;;;;;;;26.35;13.68;;;13.00;99.90;;;;;;6271652;22;20099;-83
2022/10/31 08:43:15;;;;;;;31.75;15.05;;;13.00;99.90;;;;;;6221681;22;19996;-86
2022/10/31 08:46:01;;;;;;;27.70;14.15;;;13.00;99.90;;;;;;6238886;22;20012;-85
2022/10/31 08:48:29;;;;;;;28.15;14.63;;;12.90;99.90;;;;;;6269980;22;20059;-82
2022/10/31 08:51:00;;;;;;;35.15;15.63;;;12.90;99.90;;;;;;6272478;22;19992;-83
2022/10/31 08:53:28;;;;;;;31.33;15.95;;;12.90;99.90;;;;;;6245017;23;20034;-85
2022/10/31 08:56:12;;;;;;;34.05;16.00;;;13.00;99.90;;;;;;6272449;22;20031;-83
2022/10/31 08:58:38;;;;;;;31.73;16.40;;;13.00;99.90;;;;;;6271682;22;19992;-84
2022/10/31 09:01:04;;;;;;;38.60;15.48;;;13.00;99.90;;;;;;6272930;22;20014;-83
2022/10/31 09:03:41;;;;;;;37.58;17.15;;;13.00;99.90;;;;;;6272540;22;20043;-85
2022/10/31 09:06:18;;;;;;;34.92;16.20;;;13.00;99.90;;;;;;6240717;23;20035;-86
2022/10/31 09:08:55;;;;;;;41.15;18.05;;;13.00;99.90;;;;;;6242342;22;19996;-86
2022/10/31 09:11:27;;;;;;;37.47;18.33;;;13.00;99.90;;;;;;6248662;22;20004;-83
2022/10/31 09:14:14;;;;;;;34.88;16.70;;;13.00;99.90;;;;;;6273285;22;20097;-83
2022/10/31 09:17:19;;;;;;;43.33;19.42;;;13.00;99.90;;;;;;6263841;22;20030;-84
2022/10/31 09:20:21;;;;;;;37.28;18.35;;;13.00;99.90;;;;;;6273226;22;20016;-82
2022/10/31 09:22:47;;;;;;;39.22;18.00;;;13.10;99.90;;;;;;6273856;22;20000;-86
2022/10/31 09:25:14;;;;;;;40.70;18.27;;;13.00;99.90;;;;;;6272703;22;19992;-86
2022/10/31 09:27:43;;;;;;;43.67;20.45;;;13.10;99.90;;;;;;6272320;22;20000;-84
2022/10/31 09:30:09;;;;;;;40.00;18.35;;;13.20;99.90;;;;;;6271950;22;20019;-85
2022/10/31 09:32:36;;;;;;;40.58;19.35;;;13.30;99.90;;;;;;6246601;22;20004;-85
2022/10/31 09:35:05;;;;;;;40.83;18.92;;;13.30;99.90;;;;;;6246731;22;20004;-84
2022/10/31 09:37:31;;;;;;;40.97;19.63;;;13.40;99.90;;;;;;6243961;23;20144;-85
2022/10/31 09:39:57;;;;;;;40.33;19.23;;;13.40;99.90;;;;;;6237560;23;20011;-86
2022/10/31 09:42:44;;;;;;;36.33;18.05;;;13.50;99.90;;;;;;6243782;23;19997;-86
2022/10/31 09:45:26;;;;;;;39.50;19.85;;;13.50;99.90;;;;;;6266787;23;20067;-87
2022/10/31 09:48:51;;;;;;;43.95;19.75;;;13.50;99.90;;;;;;6241767;23;20019;-86
2022/10/31 09:52:20;;;;;;;49.53;21.50;;;13.50;99.90;;;;;;6146950;22;20008;-87
2022/10/31 09:55:21;;;;;;;51.95;24.23;;;13.40;99.90;;;;;;6243292;23;20014;-85
2022/10/31 09:58:14;;;;;;;42.63;22.88;;;13.40;99.90;;;;;;6272313;22;20052;-88
2022/10/31 10:00:43;;;;;;;48.57;22.57;;;13.40;99.90;;;;;;6273985;22;19996;-88
2022/10/31 10:03:20;;;;;;;42.25;20.45;;;13.40;99.90;;;;;;6248972;22;20031;-85
2022/10/31 10:06:00;;;;;;;45.00;22.55;;;13.50;99.90;;;;;;6273919;22;20072;-84
2022/10/31 10:08:46;;;;;;;49.47;24.08;;;13.50;99.90;;;;;;6252241;22;19996;-84
2022/10/31 10:12:29;;;;;;;53.70;26.23;;;13.50;99.90;;;;;;6274400;22;20011;-85
2022/10/31 10:15:08;;;;;;;52.97;25.08;;;13.40;99.90;;;;;;6275273;22;20042;-88
2022/10/31 10:17:46;;;;;;;53.47;25.73;;;13.30;99.90;;;;;;6274730;22;20015;-84
2022/10/31 10:20:44;;;;;;;54.65;26.55;;;13.30;99.90;;;;;;6274854;22;20007;-83
2022/10/31 10:23:56;;;;;;;52.70;25.20;;;13.30;99.90;;;;;;6224300;22;20052;-83
2022/10/31 10:26:30;;;;;;;49.65;22.83;;;13.20;99.90;;;;;;6236680;22;20004;-86
2022/10/31 10:29:02;;;;;;;46.03;22.08;;;13.10;99.90;;;;;;6270816;23;20012;-86
2022/10/31 10:31:35;;;;;;;48.63;21.30;;;13.10;99.90;;;;;;6243309;23;20012;-85
2022/10/31 10:34:45;;;;;;;49.75;21.88;;;13.20;99.90;;;;;;6272707;22;19996;-84
2022/10/31 10:37:36;;;;;;;46.05;22.45;;;13.10;99.90;;;;;;6127879;23;20021;-85
2022/10/31 10:40:18;;;;;;;50.45;24.13;;;13.10;99.90;;;;;;6151815;23;20002;-88
2022/10/31 10:43:19;;;;;;;50.72;24.35;;;13.20;99.90;;;;;;6241819;22;20010;-85
2022/10/31 10:49:10;;;;;;;53.13;24.60;;;13.10;99.90;;;;;;6262673;23;20049;-86
2022/10/31 10:51:54;;;;;;;58.70;26.80;;;13.20;99.90;;;;;;6263258;23;20004;-86
2022/10/31 10:54:44;;;;;;;53.97;25.38;;;13.20;99.90;;;;;;6264466;23;20073;-88
2022/10/31 10:57:21;;;;;;;58.38;25.40;;;13.20;99.90;;;;;;6235822;23;20020;-89
2022/10/31 10:59:48;;;;;;;59.17;26.52;;;13.30;99.90;;;;;;6261661;23;20000;-87
2022/10/31 11:02:23;;;;;;;58.63;26.67;;;13.30;99.90;;;;;;6262160;23;20020;-88
2022/10/31 11:04:55;;;;;;;59.38;26.35;;;13.30;99.90;;;;;;6265060;22;20019;-88
2022/10/31 11:07:21;;;;;;;62.17;27.42;;;13.30;99.90;;;;;;6237483;23;20012;-87
2022/10/31 11:09:47;;;;;;;63.85;29.17;;;13.30;99.90;;;;;;6262599;23;20083;-87
2022/10/31 11:12:26;;;;;;;61.58;28.20;;;13.30;99.90;;;;;;6236803;23;20012;-90
2022/10/31 11:15:03;;;;;;;63.90;27.67;;;13.20;99.90;;;;;;6263014;23;20004;-87
2022/10/31 11:17:41;;;;;;;61.85;27.92;;;13.20;99.90;;;;;;6268253;22;20072;-88
2022/10/31 11:20:13;;;;;;;59.03;27.92;;;13.20;99.90;;;;;;6271417;22;19996;-86
2022/10/31 11:22:50;;;;;;;65.32;29.02;;;13.20;99.90;;;;;;6272245;22;20008;-86
2022/10/31 11:28:34;;;;;;;55.10;26.38;;;13.20;99.90;;;;;;6257954;22;20043;-87
2022/10/31 11:31:15;;;;;;;53.55;26.45;;;13.20;99.90;;;;;;6267767;23;19992;-88
2022/10/31 11:33:58;;;;;;;65.78;27.98;;;13.20;99.90;;;;;;6266593;22;20080;-88
2022/10/31 11:36:29;;;;;;;67.82;30.48;;;13.20;99.90;;;;;;6266874;23;20020;-88
2022/10/31 11:38:57;;;;;;;59.10;27.83;;;13.20;99.90;;;;;;6266597;22;20067;-87
2022/10/31 11:41:32;;;;;;;71.90;32.33;;;13.30;99.90;;;;;;6266307;22;20020;-87
2022/10/31 11:44:02;;;;;;;72.60;30.92;;;13.20;99.90;;;;;;6265583;23;20314;-89
2022/10/31 11:46:34;;;;;;;66.18;29.08;;;13.20;99.90;;;;;;6262587;23;20019;-89
2022/10/31 11:49:01;;;;;;;59.35;29.30;;;13.20;99.90;;;;;;6254703;22;20013;-80
2022/10/31 11:51:32;;;;;;;59.30;26.73;;;13.20;99.90;;;;;;6249230;23;20030;-78
2022/10/31 11:53:59;;;;;;;67.53;28.25;;;13.20;99.90;;;;;;6252643;22;20374;-80
2022/10/31 11:56:25;;;;;;;55.45;26.52;;;13.20;99.90;;;;;;6251425;23;20004;-79
2022/10/31 11:59:02;;;;;;;61.63;28.63;;;13.30;99.90;;;;;;6254718;23;20004;-84
2022/10/31 12:01:30;;;;;;;68.00;29.00;;;13.40;99.90;;;;;;6253411;22;20039;-80
2022/10/31 12:03:58;;;;;;;65.72;29.17;;;13.50;99.90;;;;;;6252587;22;20619;-82
2022/10/31 12:06:32;;;;;;;62.22;29.13;;;13.50;99.90;;;;;;6251159;23;20062;-84
2022/10/31 12:08:58;;;;;;;76.93;31.27;;;13.50;99.90;;;;;;6230166;23;20318;-82
2022/10/31 12:11:48;;;;;;;61.25;29.48;;;13.50;99.90;;;;;;6257265;22;20003;-79
2022/10/31 12:14:32;;;;;;;62.28;29.02;;;13.50;99.90;;;;;;6268885;23;20008;-78
2022/10/31 12:17:05;;;;;;;66.50;28.63;;;13.60;99.90;;;;;;6269168;22;20016;-79
2022/10/31 12:20:17;;;;;;;63.55;28.73;;;13.50;99.90;;;;;;6269682;22;20004;-79
2022/10/31 12:22:49;;;;;;;69.55;29.58;;;13.60;99.90;;;;;;6136742;23;20018;-81
2022/10/31 12:25:44;;;;;;;65.88;29.88;;;13.70;99.90;;;;;;6237282;23;20004;-78
2022/10/31 12:28:22;;;;;;;66.88;32.08;;;13.80;99.90;;;;;;6225949;23;20008;-83
2022/10/31 12:30:51;;;;;;;75.72;33.50;;;13.80;99.90;;;;;;6251831;23;20103;-79
2022/10/31 12:33:34;;;;;;;77.97;34.38;;;13.90;99.90;;;;;;6251845;23;20126;-82
2022/10/31 12:36:38;;;;;;;73.05;34.15;;;13.90;99.90;;;;;;6252135;23;20004;-80
2022/10/31 12:39:26;;;;;;;79.70;35.83;;;13.80;99.90;;;;;;6246571;22;20015;-80
2022/10/31 12:42:29;;;;;;;93.95;38.63;;;13.70;99.90;;;;;;6265649;23;20003;-77
2022/10/31 12:45:04;;;;;;;87.68;35.50;;;13.50;99.90;;;;;;6259073;23;20177;-81
2022/10/31 12:48:07;;;;;;;96.05;38.45;;;13.50;99.90;;;;;;6260825;23;20255;-80
2022/10/31 12:51:07;;;;;;;92.35;35.92;;;13.50;99.90;;;;;;6254101;22;20090;-80
2022/10/31 12:53:52;;;;;;;94.07;37.53;;;13.50;99.90;;;;;;6253275;22;20012;-83
2022/10/31 12:56:36;;;;;;;92.73;36.53;;;13.40;99.90;;;;;;6252193;23;20015;-80
2022/10/31 12:59:21;;;;;;;90.30;39.40;;;13.30;99.90;;;;;;6253155;23;20004;-80
2022/10/31 13:02:10;;;;;;;96.05;39.50;;;13.30;99.90;;;;;;6253588;23;20000;-82
2022/10/31 13:04:36;;;;;;;103.55;40.25;;;13.20;99.90;;;;;;6228491;23;20012;-81
2022/10/31 13:07:11;;;;;;;104.05;39.78;;;13.20;99.90;;;;;;6253358;22;20011;-79
2022/10/31 13:09:59;;;;;;;97.07;40.15;;;13.20;99.90;;;;;;6252701;23;20019;-82
2022/10/31 13:12:28;;;;;;;107.93;40.58;;;13.10;99.90;;;;;;6252048;23;20383;-81
2022/10/31 13:14:58;;;;;;;94.93;38.85;;;13.10;99.90;;;;;;6225332;23;20008;-82
2022/10/31 13:17:49;;;;;;;104.13;40.65;;;13.10;99.90;;;;;;6252810;22;20015;-82
2022/10/31 13:20:29;;;;;;;98.50;39.63;;;13.10;99.90;;;;;;6253264;22;20012;-81
2022/10/31 13:23:18;;;;;;;104.10;39.92;;;13.10;99.90;;;;;;6259761;22;20015;-81
2022/10/31 13:25:52;;;;;;;98.25;38.78;;;13.10;99.90;;;;;;6259159;22;20079;-77
2022/10/31 13:28:43;;;;;;;103.00;38.35;;;13.10;99.90;;;;;;6248757;23;20000;-83
2022/10/31 13:31:09;;;;;;;99.40;38.42;;;13.10;99.90;;;;;;6251439;22;20103;-80
2022/10/31 13:33:44;;;;;;;99.43;38.63;;;13.10;99.90;;;;;;6251927;22;20015;-82
2022/10/31 13:36:19;;;;;;;;;;;13.10;99.90;;;;;;6249197;23;20300;-81
2022/10/31 13:38:47;;;;;;;94.83;36.20;;;13.10;99.90;;;;;;6249451;23;19926;-79
2022/10/31 13:41:25;;;;;;;98.50;37.80;;;13.10;99.90;;;;;;6251430;22;20777;-79